createdAt,value
2022-10-25T00:00:50.305Z,17.80
2022-10-25T00:03:38.683Z,17.80
2022-10-25T00:06:27.044Z,17.80
2022-10-25T00:09:15.431Z,17.80
2022-10-25T00:12:07.156Z,17.80
2022-10-25T00:14:56.846Z,17.80
2022-10-25T00:17:45.746Z,17.80
2022-10-25T00:20:34.270Z,17.80
2022-10-25T00:23:22.600Z,17.80
2022-10-25T00:26:11.470Z,17.80
2022-10-25T00:28:59.807Z,17.80
2022-10-25T00:31:49.476Z,17.80
2022-10-25T00:34:37.871Z,17.80
2022-10-25T00:37:26.248Z,17.80
2022-10-25T00:40:14.619Z,17.80
2022-10-25T00:43:02.960Z,17.80
2022-10-25T00:45:51.348Z,17.80
2022-10-25T00:48:41.165Z,17.80
2022-10-25T00:51:32.741Z,17.80
2022-10-25T00:54:26.910Z,17.70
2022-10-25T00:57:17.438Z,17.70
2022-10-25T01:00:07.317Z,17.70
2022-10-25T01:05:46.319Z,17.70
2022-10-25T01:08:34.675Z,17.70
2022-10-25T01:11:23.023Z,17.70
2022-10-25T01:14:13.162Z,17.70
2022-10-25T01:17:05.353Z,17.60
2022-10-25T01:20:29.369Z,17.60
2022-10-25T01:23:56.996Z,17.60
2022-10-25T01:27:07.290Z,17.60
2022-10-25T01:30:13.927Z,17.60
2022-10-25T01:33:11.500Z,17.60
2022-10-25T01:36:03.136Z,17.60
2022-10-25T01:38:55.453Z,17.60
2022-10-25T01:41:51.334Z,17.60
2022-10-25T01:44:45.302Z,17.60
2022-10-25T01:47:37.777Z,17.60
2022-10-25T01:50:29.171Z,17.60
2022-10-25T01:53:17.522Z,17.60
2022-10-25T01:56:06.159Z,17.60
2022-10-25T01:59:14.312Z,17.60
2022-10-25T02:02:05.629Z,17.60
2022-10-25T02:05:00.904Z,17.60
2022-10-25T02:07:56.008Z,17.60
2022-10-25T02:10:49.244Z,17.60
2022-10-25T02:13:45.156Z,17.60
2022-10-25T02:16:37.479Z,17.60
2022-10-25T02:19:29.293Z,17.60
2022-10-25T02:22:17.737Z,17.60
2022-10-25T02:25:09.346Z,17.60
2022-10-25T02:27:57.748Z,17.60
2022-10-25T02:30:46.116Z,17.60
2022-10-25T02:33:34.517Z,17.60
2022-10-25T02:36:23.863Z,17.60
2022-10-25T02:39:12.219Z,17.60
2022-10-25T02:42:02.738Z,17.60
2022-10-25T02:44:51.127Z,17.60
2022-10-25T02:47:39.489Z,17.70
2022-10-25T02:50:27.865Z,17.70
2022-10-25T02:53:16.204Z,17.70
2022-10-25T02:56:06.486Z,17.70
2022-10-25T02:58:57.638Z,17.70
2022-10-25T03:01:46.032Z,17.70
2022-10-25T03:04:34.509Z,17.70
2022-10-25T03:07:22.870Z,17.70
2022-10-25T03:10:11.356Z,17.70
2022-10-25T03:12:59.713Z,17.70
2022-10-25T03:15:49.546Z,17.70
2022-10-25T03:18:37.964Z,17.70
2022-10-25T03:21:26.740Z,17.70
2022-10-25T03:24:15.211Z,17.70
2022-10-25T03:27:03.571Z,17.60
2022-10-25T03:29:51.945Z,17.60
2022-10-25T03:32:41.753Z,17.60
2022-10-25T03:35:30.172Z,17.60
2022-10-25T03:38:18.519Z,17.60
2022-10-25T03:41:07.126Z,17.60
2022-10-25T03:43:55.483Z,17.50
2022-10-25T03:46:43.956Z,17.50
2022-10-25T03:49:33.637Z,17.50
2022-10-25T03:52:21.954Z,17.50
2022-10-25T03:55:10.921Z,17.50
2022-10-25T03:57:59.590Z,17.40
2022-10-25T04:00:47.990Z,17.40
2022-10-25T04:03:36.723Z,17.40
2022-10-25T04:06:26.550Z,17.40
2022-10-25T04:09:14.875Z,17.40
2022-10-25T04:12:03.342Z,17.40
2022-10-25T04:14:51.718Z,17.40
2022-10-25T04:17:40.054Z,17.40
2022-10-25T04:20:28.520Z,17.40
2022-10-25T04:23:18.187Z,17.40
2022-10-25T04:26:06.908Z,17.40
2022-10-25T04:28:56.495Z,17.40
2022-10-25T04:31:44.889Z,17.40
2022-10-25T04:34:33.207Z,17.30
2022-10-25T04:37:21.547Z,17.30
2022-10-25T04:40:12.993Z,17.30
2022-10-25T04:43:02.523Z,17.30
2022-10-25T04:45:51.109Z,17.30
2022-10-25T04:48:39.620Z,17.30
2022-10-25T04:51:28.024Z,17.30
2022-10-25T04:54:16.664Z,17.30
2022-10-25T04:57:07.151Z,17.20
2022-10-25T04:59:57.505Z,17.20
2022-10-25T05:02:46.244Z,17.20
2022-10-25T05:05:34.877Z,17.20
2022-10-25T05:08:23.220Z,17.20
2022-10-25T05:11:12.643Z,17.20
2022-10-25T05:14:02.311Z,17.20
2022-10-25T05:16:50.730Z,17.20
2022-10-25T05:19:39.063Z,17.20
2022-10-25T05:22:27.553Z,17.20
2022-10-25T05:25:16.105Z,17.30
2022-10-25T05:28:04.623Z,17.30
2022-10-25T05:30:54.512Z,17.30
2022-10-25T05:33:44.914Z,17.30
2022-10-25T05:36:33.423Z,17.30
2022-10-25T05:39:21.824Z,17.30
2022-10-25T05:42:10.148Z,17.30
2022-10-25T05:44:58.496Z,17.30
2022-10-25T05:47:48.162Z,17.40
2022-10-25T05:50:36.576Z,17.40
2022-10-25T05:53:24.946Z,17.40
2022-10-25T05:56:13.783Z,17.40
2022-10-25T05:59:07.541Z,17.40
2022-10-25T06:01:55.990Z,17.40
2022-10-25T06:04:25.549Z,17.50
2022-10-25T06:06:53.640Z,17.40
2022-10-25T06:09:21.840Z,17.50
2022-10-25T06:11:49.948Z,17.50
2022-10-25T06:14:17.974Z,17.50
2022-10-25T06:16:46.049Z,17.50
2022-10-25T06:19:14.095Z,17.50
2022-10-25T06:21:43.538Z,17.50
2022-10-25T06:24:11.808Z,17.50
2022-10-25T06:26:39.847Z,17.60
2022-10-25T06:29:07.861Z,17.60
2022-10-25T06:31:35.911Z,17.50
2022-10-25T06:34:04.147Z,17.60
2022-10-25T06:36:32.477Z,17.60
2022-10-25T06:39:05.513Z,17.60
2022-10-25T06:41:36.704Z,17.60
2022-10-25T06:44:06.785Z,17.60
2022-10-25T06:46:57.982Z,17.60
2022-10-25T06:49:24.939Z,17.60
2022-10-25T06:51:53.015Z,17.60
2022-10-25T06:54:22.516Z,17.60
2022-10-25T06:56:50.562Z,17.70
2022-10-25T06:59:20.318Z,17.70
2022-10-25T07:01:48.515Z,17.70
2022-10-25T07:04:16.907Z,17.80
2022-10-25T07:06:44.953Z,17.80
2022-10-25T07:09:13.320Z,17.80
2022-10-25T07:11:42.726Z,17.90
2022-10-25T07:14:11.738Z,18.00
2022-10-25T07:16:39.797Z,18.00
2022-10-25T07:19:08.602Z,18.00
2022-10-25T07:21:36.658Z,18.10
2022-10-25T07:24:05.128Z,18.10
2022-10-25T07:26:34.784Z,18.10
2022-10-25T07:29:04.998Z,18.10
2022-10-25T07:31:34.436Z,18.10
2022-10-25T07:34:04.054Z,18.10
2022-10-25T07:36:32.265Z,18.10
2022-10-25T07:39:00.746Z,18.20
2022-10-25T07:41:28.793Z,18.20
2022-10-25T07:43:56.935Z,18.20
2022-10-25T07:46:26.369Z,18.20
2022-10-25T07:48:54.459Z,18.30
2022-10-25T07:51:22.600Z,18.30
2022-10-25T07:53:50.916Z,18.30
2022-10-25T07:56:23.167Z,18.30
2022-10-25T07:58:52.661Z,18.30
2022-10-25T08:01:22.620Z,18.30
2022-10-25T08:03:52.416Z,18.40
2022-10-25T08:06:21.191Z,18.40
2022-10-25T08:08:49.260Z,18.40
2022-10-25T08:11:17.435Z,18.50
2022-10-25T08:13:45.503Z,18.50
2022-10-25T08:16:13.558Z,18.60
2022-10-25T08:18:41.602Z,18.70
2022-10-25T08:21:11.002Z,18.90
2022-10-25T08:23:39.122Z,19.10
2022-10-25T08:26:07.635Z,19.40
2022-10-25T08:28:35.805Z,19.60
2022-10-25T08:31:04.365Z,19.80
2022-10-25T08:33:33.532Z,19.90
2022-10-25T08:36:02.212Z,20.00
2022-10-25T08:38:31.671Z,20.10
2022-10-25T08:41:06.620Z,20.20
2022-10-25T08:46:34.535Z,20.20
2022-10-25T08:49:10.703Z,20.20
2022-10-25T08:51:40.338Z,20.20
2022-10-25T08:54:23.956Z,20.20
2022-10-25T08:57:10.527Z,20.20
2022-10-25T08:59:40.848Z,20.20
2022-10-25T09:02:18.536Z,20.20
2022-10-25T09:04:46.715Z,20.20
2022-10-25T09:07:54.714Z,20.30
2022-10-25T09:10:51.634Z,20.30
2022-10-25T09:13:30.580Z,20.40
2022-10-25T09:16:05.950Z,20.50
2022-10-25T09:18:39.427Z,20.50
2022-10-25T09:21:14.786Z,20.50
2022-10-25T09:23:45.042Z,20.50
2022-10-25T09:26:19.766Z,20.50
2022-10-25T09:28:52.656Z,20.40
2022-10-25T09:31:24.269Z,20.40
2022-10-25T09:34:01.476Z,20.40
2022-10-25T09:36:37.044Z,20.30
2022-10-25T09:39:10.321Z,20.40
2022-10-25T09:41:45.059Z,20.30
2022-10-25T09:44:16.862Z,20.30
2022-10-25T09:46:46.725Z,20.30
2022-10-25T09:49:23.379Z,20.30
2022-10-25T09:51:57.473Z,20.30
2022-10-25T09:54:28.635Z,20.30
2022-10-25T09:56:58.044Z,20.20
2022-10-25T09:59:27.753Z,20.20
2022-10-25T10:01:55.940Z,20.20
2022-10-25T10:04:26.820Z,20.20
2022-10-25T10:06:58.046Z,20.10
2022-10-25T10:09:26.456Z,20.10
2022-10-25T10:11:54.543Z,20.10
2022-10-25T10:14:29.707Z,19.90
2022-10-25T10:16:58.421Z,20.10
2022-10-25T10:19:29.807Z,20.10
2022-10-25T10:21:59.487Z,20.10
2022-10-25T10:24:29.330Z,20.20
2022-10-25T10:26:58.866Z,20.20
2022-10-25T10:29:29.230Z,20.30
2022-10-25T10:32:00.249Z,20.30
2022-10-25T10:34:30.876Z,20.40
2022-10-25T10:37:08.474Z,20.50
2022-10-25T10:39:36.517Z,20.50
2022-10-25T10:42:16.225Z,20.60
2022-10-25T10:45:02.001Z,20.60
2022-10-25T10:47:33.986Z,20.60
2022-10-25T10:50:02.083Z,20.70
2022-10-25T10:52:32.711Z,20.70
2022-10-25T10:55:01.129Z,20.70
2022-10-25T10:57:33.274Z,20.70
2022-10-25T11:00:02.768Z,20.70
2022-10-25T11:02:38.937Z,20.80
2022-10-25T11:05:25.874Z,20.70
2022-10-25T11:07:56.327Z,20.70
2022-10-25T11:10:30.430Z,20.70
2022-10-25T11:13:13.502Z,20.70
2022-10-25T11:16:20.988Z,20.80
2022-10-25T11:18:59.913Z,20.80
2022-10-25T11:21:40.703Z,20.90
2022-10-25T11:24:16.141Z,21.00
2022-10-25T11:26:52.830Z,21.00
2022-10-25T11:29:32.565Z,21.10
2022-10-25T11:32:08.888Z,21.10
2022-10-25T11:34:40.651Z,21.20
2022-10-25T11:37:16.297Z,21.20
2022-10-25T11:39:51.694Z,21.30
2022-10-25T11:42:48.199Z,21.30
2022-10-25T11:45:40.982Z,21.30
2022-10-25T11:48:47.468Z,21.30
2022-10-25T11:51:22.398Z,21.30
2022-10-25T11:54:18.439Z,21.30
2022-10-25T11:56:54.675Z,21.30
2022-10-25T11:59:26.072Z,21.30
2022-10-25T12:02:03.833Z,21.30
2022-10-25T12:04:44.171Z,21.30
2022-10-25T12:07:15.032Z,21.30
2022-10-25T12:09:51.252Z,21.30
2022-10-25T12:12:20.192Z,21.30
2022-10-25T12:14:50.554Z,21.40
2022-10-25T12:17:24.189Z,21.50
2022-10-25T12:19:55.253Z,21.50
2022-10-25T12:22:25.279Z,21.60
2022-10-25T12:24:57.771Z,21.60
2022-10-25T12:27:25.854Z,21.70
2022-10-25T12:29:56.840Z,21.70
2022-10-25T12:32:28.861Z,21.70
2022-10-25T12:34:58.811Z,21.70
2022-10-25T12:37:31.513Z,21.60
2022-10-25T12:39:59.553Z,21.60
2022-10-25T12:42:30.694Z,21.60
2022-10-25T12:45:25.691Z,21.60
2022-10-25T12:48:15.682Z,21.50
2022-10-25T12:50:57.205Z,21.50
2022-10-25T12:54:16.662Z,21.40
2022-10-25T12:56:51.505Z,21.40
2022-10-25T12:59:42.895Z,21.40
2022-10-25T13:02:42.666Z,21.50
2022-10-25T13:05:56.942Z,21.60
2022-10-25T13:08:25.251Z,21.50
2022-10-25T13:10:58.748Z,21.90
2022-10-25T13:13:28.006Z,21.90
2022-10-25T13:15:58.806Z,22.00
2022-10-25T13:18:41.798Z,22.00
2022-10-25T13:21:12.217Z,22.00
2022-10-25T13:24:02.598Z,22.00
2022-10-25T13:26:50.320Z,22.00
2022-10-25T13:30:05.197Z,22.00
2022-10-25T13:32:34.158Z,22.00
2022-10-25T13:35:03.766Z,22.00
2022-10-25T13:37:45.945Z,22.00
2022-10-25T13:40:25.723Z,22.00
2022-10-25T13:43:03.172Z,22.10
2022-10-25T13:45:40.386Z,22.00
2022-10-25T13:48:26.710Z,22.00
2022-10-25T13:50:55.771Z,22.00
2022-10-25T13:53:26.948Z,22.00
2022-10-25T13:56:00.950Z,22.00
2022-10-25T13:58:58.920Z,22.00
2022-10-25T14:01:57.171Z,22.00
2022-10-25T14:04:39.290Z,22.10
2022-10-25T14:07:50.706Z,22.10
2022-10-25T14:10:25.886Z,22.20
2022-10-25T14:12:59.905Z,22.30
2022-10-25T14:15:38.515Z,22.30
2022-10-25T14:18:15.247Z,22.40
2022-10-25T14:20:46.640Z,22.50
2022-10-25T14:23:16.531Z,22.50
2022-10-25T14:25:52.137Z,22.50
2022-10-25T14:28:24.161Z,22.50
2022-10-25T14:30:55.013Z,22.60
2022-10-25T14:33:28.136Z,22.60
2022-10-25T14:35:58.683Z,22.60
2022-10-25T14:38:28.189Z,22.60
2022-10-25T14:40:58.676Z,22.60
2022-10-25T14:43:29.968Z,22.60
2022-10-25T14:46:03.313Z,22.50
2022-10-25T14:48:31.610Z,22.50
2022-10-25T14:51:04.457Z,22.50
2022-10-25T14:53:32.620Z,22.50
2022-10-25T14:56:03.285Z,22.40
2022-10-25T14:58:34.477Z,22.40
2022-10-25T15:01:03.824Z,22.30
2022-10-25T15:03:32.120Z,22.30
2022-10-25T15:06:00.216Z,22.30
2022-10-25T15:08:28.805Z,22.30
2022-10-25T15:10:58.408Z,22.30
2022-10-25T15:13:30.452Z,22.40
2022-10-25T15:16:00.226Z,22.50
2022-10-25T15:18:36.421Z,22.60
2022-10-25T15:21:10.735Z,22.70
2022-10-25T15:23:39.403Z,22.80
2022-10-25T15:26:21.966Z,22.90
2022-10-25T15:28:52.817Z,22.90
2022-10-25T15:31:24.619Z,22.90
2022-10-25T15:33:58.339Z,22.90
2022-10-25T15:36:27.843Z,22.80
2022-10-25T15:39:16.789Z,22.70
2022-10-25T15:41:45.269Z,22.50
2022-10-25T15:44:14.686Z,22.40
2022-10-25T15:46:42.794Z,22.30
2022-10-25T15:49:12.416Z,22.10
2022-10-25T15:51:41.654Z,21.90
2022-10-25T15:54:14.495Z,21.70
2022-10-25T15:56:42.718Z,21.40
2022-10-25T15:59:10.880Z,21.20
2022-10-25T16:01:42.552Z,21.00
2022-10-25T16:04:13.994Z,20.80
2022-10-25T16:06:42.189Z,20.60
2022-10-25T16:09:10.282Z,20.40
2022-10-25T16:11:39.172Z,20.20
2022-10-25T16:14:08.725Z,20.00
2022-10-25T16:16:41.144Z,19.80
2022-10-25T16:19:14.356Z,19.60
2022-10-25T16:21:42.578Z,19.50
2022-10-25T16:24:10.798Z,19.30
2022-10-25T16:26:41.593Z,19.10
2022-10-25T16:29:16.166Z,19.00
2022-10-25T16:31:44.330Z,18.90
2022-10-25T16:34:15.401Z,18.80
2022-10-25T16:36:43.738Z,18.70
2022-10-25T16:39:12.355Z,18.50
2022-10-25T16:41:41.511Z,18.40
2022-10-25T16:44:11.270Z,18.30
2022-10-25T16:46:39.532Z,18.20
2022-10-25T16:49:09.266Z,18.10
2022-10-25T16:51:39.023Z,18.10
2022-10-25T16:54:07.456Z,17.90
2022-10-25T16:56:35.555Z,17.80
2022-10-25T16:59:03.769Z,17.80
2022-10-25T17:01:33.781Z,17.70
2022-10-25T17:04:02.665Z,17.60
2022-10-25T17:06:46.221Z,17.50
2022-10-25T17:09:16.415Z,17.50
2022-10-25T17:11:44.675Z,17.40
2022-10-25T17:14:14.230Z,17.40
2022-10-25T17:16:44.522Z,17.30
2022-10-25T17:19:12.951Z,17.20
2022-10-25T17:21:40.979Z,17.10
2022-10-25T17:24:09.496Z,17.10
2022-10-25T17:26:39.501Z,17.00
2022-10-25T17:29:07.598Z,17.00
2022-10-25T17:31:35.997Z,17.00
2022-10-25T17:34:04.363Z,16.90
2022-10-25T17:36:32.650Z,16.90
2022-10-25T17:39:00.916Z,16.90
2022-10-25T17:41:29.159Z,16.90
2022-10-25T17:43:58.653Z,17.00
2022-10-25T17:46:29.082Z,17.00
2022-10-25T17:48:58.417Z,17.10
2022-10-25T17:51:26.545Z,17.10
2022-10-25T17:53:55.159Z,17.10
2022-10-25T17:56:24.326Z,17.10
2022-10-25T17:58:52.768Z,17.10
2022-10-25T18:01:23.608Z,17.10
2022-10-25T18:03:51.810Z,17.10
2022-10-25T18:08:56.730Z,17.10
2022-10-25T18:11:26.959Z,17.10
2022-10-25T18:13:56.204Z,17.20
2022-10-25T18:16:26.957Z,17.10
2022-10-25T18:18:56.046Z,17.10
2022-10-25T18:21:24.244Z,17.10
2022-10-25T18:23:55.650Z,17.10
2022-10-25T18:26:24.415Z,17.10
2022-10-25T18:28:52.569Z,17.10
2022-10-25T18:31:20.987Z,17.10
2022-10-25T18:33:50.449Z,17.10
2022-10-25T18:36:20.144Z,17.00
2022-10-25T18:38:48.418Z,17.00
2022-10-25T18:41:18.611Z,16.90
2022-10-25T18:43:46.751Z,16.90
2022-10-25T18:46:15.111Z,16.90
2022-10-25T18:48:45.115Z,16.90
2022-10-25T18:51:15.055Z,16.80
2022-10-25T18:53:43.331Z,16.80
2022-10-25T18:56:11.900Z,16.80
2022-10-25T18:58:39.944Z,16.80
2022-10-25T19:01:08.900Z,16.70
2022-10-25T19:03:37.115Z,16.70
2022-10-25T19:06:06.692Z,16.70
2022-10-25T19:08:36.279Z,16.70
2022-10-25T19:11:04.819Z,16.80
2022-10-25T19:13:32.856Z,16.70
2022-10-25T19:16:01.043Z,16.80
2022-10-25T19:18:30.110Z,16.70
2022-10-25T19:21:01.853Z,16.80
2022-10-25T19:23:29.958Z,16.70
2022-10-25T19:26:02.354Z,16.80
2022-10-25T19:28:30.467Z,16.80
2022-10-25T19:30:58.482Z,16.80
2022-10-25T19:33:26.663Z,16.80
2022-10-25T19:35:54.736Z,16.80
2022-10-25T19:38:22.884Z,16.70
2022-10-25T19:40:50.957Z,16.70
2022-10-25T19:43:20.352Z,16.70
2022-10-25T19:45:48.394Z,16.70
2022-10-25T19:48:16.443Z,16.70
2022-10-25T19:50:44.586Z,16.70
2022-10-25T19:53:12.666Z,16.70
2022-10-25T19:55:40.794Z,16.80
2022-10-25T19:58:08.870Z,16.80
2022-10-25T20:00:38.337Z,16.80
2022-10-25T20:03:24.960Z,16.80
2022-10-25T20:06:17.481Z,16.90
2022-10-25T20:09:10.008Z,16.90
2022-10-25T20:11:58.656Z,17.00
2022-10-25T20:14:46.966Z,17.00
2022-10-25T20:17:36.662Z,17.00
2022-10-25T20:20:24.979Z,17.00
2022-10-25T20:23:13.344Z,17.10
2022-10-25T20:26:09.945Z,17.10
2022-10-25T20:29:00.024Z,17.10
2022-10-25T20:31:48.374Z,17.10
2022-10-25T20:34:38.362Z,17.10
2022-10-25T20:37:26.713Z,17.10
2022-10-25T20:40:15.243Z,17.20
2022-10-25T20:43:03.650Z,17.20
2022-10-25T20:45:51.981Z,17.20
2022-10-25T20:48:40.392Z,17.20
2022-10-25T20:51:30.327Z,17.20
2022-10-25T20:54:18.820Z,17.20
2022-10-25T20:57:08.516Z,17.20
2022-10-25T20:59:56.812Z,17.30
2022-10-25T21:02:45.334Z,17.20
2022-10-25T21:05:33.644Z,17.20
2022-10-25T21:08:23.488Z,17.20
2022-10-25T21:11:13.326Z,17.20
2022-10-25T21:14:01.722Z,17.20
2022-10-25T21:16:51.037Z,17.20
2022-10-25T21:19:39.520Z,17.20
2022-10-25T21:22:27.943Z,17.20
2022-10-25T21:25:17.874Z,17.20
2022-10-25T21:28:06.683Z,17.20
2022-10-25T21:30:55.126Z,17.20
2022-10-25T21:33:49.802Z,17.20
2022-10-25T21:36:39.510Z,17.20
2022-10-25T21:39:27.980Z,17.20
2022-10-25T21:42:17.669Z,17.20
2022-10-25T21:45:06.914Z,17.20
2022-10-25T21:47:55.382Z,17.30
2022-10-25T21:50:43.695Z,17.30
2022-10-25T21:53:32.001Z,17.30
2022-10-25T21:56:23.136Z,17.30
2022-10-25T21:59:12.846Z,17.30
2022-10-25T22:02:01.279Z,17.30
2022-10-25T22:04:49.721Z,17.40
2022-10-25T22:07:38.058Z,17.40
2022-10-25T22:10:26.463Z,17.40
2022-10-25T22:13:14.819Z,17.40
2022-10-25T22:16:06.341Z,17.50
2022-10-25T22:18:57.600Z,17.50
2022-10-25T22:21:46.392Z,17.60
2022-10-25T22:24:34.723Z,17.60
2022-10-25T22:27:23.058Z,17.70
2022-10-25T22:30:13.090Z,17.70
2022-10-25T22:33:02.950Z,17.70
2022-10-25T22:35:51.468Z,17.80
2022-10-25T22:38:39.880Z,17.80
2022-10-25T22:41:29.735Z,17.80
2022-10-25T22:44:18.293Z,17.90
2022-10-25T22:47:07.010Z,17.90
2022-10-25T22:49:56.708Z,17.90
2022-10-25T22:55:38.277Z,18.00
2022-10-25T22:58:27.104Z,18.00
2022-10-25T23:01:16.624Z,18.00
2022-10-25T23:04:07.281Z,18.00
2022-10-25T23:06:57.024Z,18.00
2022-10-25T23:09:45.426Z,18.10
2022-10-25T23:12:33.874Z,18.10
2022-10-25T23:15:22.462Z,18.10
2022-10-25T23:18:10.873Z,18.10
2022-10-25T23:21:00.379Z,18.10
2022-10-25T23:23:50.339Z,18.20
2022-10-25T23:26:38.820Z,18.20
2022-10-25T23:29:27.316Z,18.30
2022-10-25T23:32:15.627Z,18.30
2022-10-25T23:35:04.148Z,18.30
2022-10-25T23:37:52.452Z,18.30
2022-10-25T23:40:45.987Z,18.40
2022-10-25T23:43:34.542Z,18.40
2022-10-25T23:46:22.966Z,18.40
2022-10-25T23:49:11.326Z,18.40
2022-10-25T23:51:59.649Z,18.40
2022-10-25T23:54:48.010Z,18.40
2022-10-25T23:57:37.723Z,18.40
